createdAt,value
2019-02-16T00:03:38.221Z,4.90
2019-02-16T00:08:44.209Z,4.90
2019-02-16T00:13:48.949Z,4.80
2019-02-16T00:18:53.688Z,4.80
2019-02-16T00:23:58.396Z,4.80
2019-02-16T00:29:03.427Z,4.70
2019-02-16T00:34:08.481Z,4.70
2019-02-16T00:39:13.153Z,4.60
2019-02-16T00:44:22.766Z,4.60
2019-02-16T00:49:25.001Z,4.50
2019-02-16T00:54:34.324Z,4.40
2019-02-16T00:59:39.305Z,4.40
2019-02-16T01:04:45.147Z,4.30
2019-02-16T01:09:51.697Z,4.30
2019-02-16T01:14:57.505Z,4.30
2019-02-16T01:20:02.488Z,4.20
2019-02-16T01:25:10.621Z,4.20
2019-02-16T01:30:18.613Z,4.10
2019-02-16T01:35:23.328Z,4.10
2019-02-16T01:40:28.037Z,4.10
2019-02-16T01:45:33.950Z,4.10
2019-02-16T01:50:38.992Z,4.00
2019-02-16T01:55:44.267Z,4.00
2019-02-16T02:00:49.690Z,3.90
2019-02-16T02:05:54.645Z,3.90
2019-02-16T02:11:01.236Z,3.90
2019-02-16T02:16:07.776Z,3.80
2019-02-16T02:21:13.030Z,3.80
2019-02-16T02:26:19.420Z,3.80
2019-02-16T02:31:25.614Z,3.70
2019-02-16T02:36:30.577Z,3.60
2019-02-16T02:41:36.605Z,3.60
2019-02-16T02:46:41.588Z,3.50
2019-02-16T02:51:52.209Z,3.50
2019-02-16T02:56:55.788Z,3.50
2019-02-16T03:02:00.491Z,3.40
2019-02-16T03:07:05.356Z,3.40
2019-02-16T03:12:10.068Z,3.40
2019-02-16T03:17:16.470Z,3.40
2019-02-16T03:22:21.172Z,3.40
2019-02-16T03:28:02.254Z,3.40
2019-02-16T03:33:16.966Z,3.30
2019-02-16T03:38:58.901Z,3.20
2019-02-16T03:44:05.841Z,3.20
2019-02-16T03:49:10.848Z,3.10
2019-02-16T03:54:17.179Z,3.10
2019-02-16T03:59:21.899Z,3.10
2019-02-16T04:04:26.634Z,3.10
2019-02-16T04:09:31.654Z,3.00
2019-02-16T04:14:36.356Z,3.00
2019-02-16T04:19:41.356Z,2.90
2019-02-16T04:24:46.507Z,2.80
2019-02-16T04:29:52.921Z,2.70
2019-02-16T04:34:58.608Z,2.70
2019-02-16T04:40:03.399Z,2.70
2019-02-16T04:45:08.759Z,2.60
2019-02-16T04:50:13.869Z,2.60
2019-02-16T04:55:18.577Z,2.50
2019-02-16T05:00:23.285Z,2.50
2019-02-16T05:05:28.265Z,2.40
2019-02-16T05:10:33.213Z,2.30
2019-02-16T05:15:39.196Z,2.30
2019-02-16T05:20:44.140Z,2.20
2019-02-16T05:25:53.092Z,2.20
2019-02-16T05:30:58.117Z,2.10
2019-02-16T05:36:03.084Z,2.10
2019-02-16T05:41:07.809Z,2.00
2019-02-16T05:46:12.782Z,1.90
2019-02-16T05:51:17.481Z,1.90
2019-02-16T05:56:23.838Z,1.80
2019-02-16T06:01:28.753Z,1.90
2019-02-16T06:06:33.681Z,1.90
2019-02-16T06:11:38.668Z,2.00
2019-02-16T06:16:43.766Z,2.00
2019-02-16T06:21:54.995Z,2.00
2019-02-16T06:26:54.886Z,2.00
2019-02-16T06:31:59.602Z,1.90
2019-02-16T06:37:25.233Z,1.90
2019-02-16T06:42:31.998Z,1.90
2019-02-16T06:47:36.980Z,1.90
2019-02-16T06:52:42.350Z,1.90
2019-02-16T06:57:50.405Z,1.80
2019-02-16T07:02:55.100Z,1.80
2019-02-16T07:08:01.391Z,1.70
2019-02-16T07:13:07.321Z,1.70
2019-02-16T07:18:31.568Z,1.70
2019-02-16T07:23:36.587Z,1.70
2019-02-16T07:28:42.241Z,1.80
2019-02-16T07:33:46.943Z,1.80
2019-02-16T07:38:51.919Z,1.90
2019-02-16T07:44:23.245Z,2.00
2019-02-16T07:49:45.220Z,2.20
2019-02-16T07:55:20.757Z,2.30
2019-02-16T08:00:44.536Z,2.40
2019-02-16T08:06:07.141Z,2.50
2019-02-16T08:11:43.539Z,2.60
2019-02-16T08:17:13.201Z,2.80
2019-02-16T08:22:44.257Z,3.00
2019-02-16T08:28:13.233Z,3.30
2019-02-16T08:33:38.677Z,3.60
2019-02-16T08:38:56.829Z,3.80
2019-02-16T08:44:23.396Z,4.10
2019-02-16T08:49:46.217Z,4.30
2019-02-16T08:55:28.178Z,4.60
2019-02-16T09:00:56.228Z,4.80
2019-02-16T09:06:19.993Z,5.10
2019-02-16T09:11:34.192Z,5.40
2019-02-16T09:16:45.675Z,5.70
2019-02-16T09:22:19.248Z,5.90
2019-02-16T09:27:45.927Z,6.20
2019-02-16T09:33:01.570Z,6.40
2019-02-16T09:38:25.419Z,6.50
2019-02-16T09:43:48.142Z,6.70
2019-02-16T09:49:11.928Z,6.80
2019-02-16T09:54:26.875Z,6.90
2019-02-16T09:59:39.627Z,7.10
2019-02-16T10:05:08.909Z,7.20
2019-02-16T10:10:22.763Z,7.30
2019-02-16T10:15:46.768Z,7.50
2019-02-16T10:21:14.707Z,7.70
2019-02-16T10:26:53.906Z,8.00
2019-02-16T10:32:26.577Z,8.20
2019-02-16T10:37:51.982Z,8.40
2019-02-16T10:43:21.589Z,8.60
2019-02-16T10:48:42.095Z,8.80
2019-02-16T10:53:55.145Z,9.00
2019-02-16T10:59:22.374Z,9.20
2019-02-16T11:04:44.303Z,9.40
2019-02-16T11:09:51.216Z,9.60
2019-02-16T11:15:18.665Z,9.80
2019-02-16T11:20:56.783Z,10.10
2019-02-16T11:26:23.489Z,10.30
2019-02-16T11:31:44.792Z,10.50
2019-02-16T11:36:58.785Z,10.70
2019-02-16T11:42:14.993Z,10.90
2019-02-16T11:47:41.740Z,11.10
2019-02-16T11:53:05.545Z,11.30
2019-02-16T11:58:35.952Z,11.50
2019-02-16T12:03:50.966Z,11.70
2019-02-16T12:09:24.994Z,12.00
2019-02-16T12:14:54.827Z,12.20
2019-02-16T12:20:05.269Z,12.40
2019-02-16T12:25:28.289Z,12.60
2019-02-16T12:30:43.312Z,12.80
2019-02-16T12:36:01.888Z,13.00
2019-02-16T12:41:25.896Z,13.20
2019-02-16T12:46:49.681Z,13.50
2019-02-16T12:52:18.070Z,13.70
2019-02-16T12:57:41.568Z,13.90
2019-02-16T13:02:58.005Z,14.10
2019-02-16T13:08:19.043Z,14.40
2019-02-16T13:13:42.864Z,14.50
2019-02-16T13:18:58.880Z,14.70
2019-02-16T13:24:10.947Z,14.90
2019-02-16T13:29:45.136Z,15.00
2019-02-16T13:35:09.527Z,15.20
2019-02-16T13:40:27.584Z,15.30
2019-02-16T13:45:48.951Z,15.50
2019-02-16T13:51:00.408Z,15.70
2019-02-16T13:56:23.085Z,15.80
2019-02-16T14:01:46.934Z,16.00
2019-02-16T14:07:20.085Z,16.20
2019-02-16T14:12:43.776Z,16.40
2019-02-16T14:17:48.610Z,16.60
2019-02-16T14:22:53.375Z,16.70
2019-02-16T14:27:58.434Z,16.90
2019-02-16T14:33:03.265Z,17.00
2019-02-16T14:38:30.613Z,17.20
2019-02-16T14:43:35.713Z,17.40
2019-02-16T14:48:40.486Z,17.50
2019-02-16T14:53:45.762Z,17.60
2019-02-16T14:58:50.826Z,17.60
2019-02-16T15:03:57.081Z,17.70
2019-02-16T15:09:05.190Z,17.70
2019-02-16T15:14:10.208Z,17.70
2019-02-16T15:19:14.962Z,17.70
2019-02-16T15:24:21.341Z,17.60
2019-02-16T15:29:27.887Z,17.50
2019-02-16T15:34:33.563Z,17.30
2019-02-16T15:39:38.376Z,17.20
2019-02-16T15:44:43.254Z,17.00
2019-02-16T15:49:49.229Z,16.90
2019-02-16T15:54:54.344Z,16.80
2019-02-16T15:59:59.223Z,16.70
2019-02-16T16:05:05.871Z,16.50
2019-02-16T16:10:19.100Z,16.30
2019-02-16T16:15:41.538Z,16.10
2019-02-16T16:20:57.863Z,15.80
2019-02-16T16:26:19.871Z,15.60
2019-02-16T16:31:32.937Z,15.30
2019-02-16T16:36:46.665Z,15.00
2019-02-16T16:41:58.336Z,14.70
2019-02-16T16:47:22.166Z,14.50
2019-02-16T16:52:55.755Z,14.30
2019-02-16T16:58:24.954Z,14.00
2019-02-16T17:03:47.853Z,13.80
2019-02-16T17:09:12.014Z,13.50
2019-02-16T17:14:39.040Z,13.10
2019-02-16T17:19:58.777Z,12.90
2019-02-16T17:25:13.273Z,12.60
2019-02-16T17:30:27.521Z,12.30
2019-02-16T17:35:51.294Z,12.00
2019-02-16T17:41:13.791Z,11.80
2019-02-16T17:46:40.853Z,11.60
2019-02-16T17:52:18.714Z,11.40
2019-02-16T17:57:30.378Z,11.30
2019-02-16T18:02:52.758Z,11.00
2019-02-16T18:08:15.784Z,10.80
2019-02-16T18:13:38.636Z,10.70
2019-02-16T18:19:08.695Z,10.50
2019-02-16T18:24:32.494Z,10.40
2019-02-16T18:29:59.274Z,10.30
2019-02-16T18:35:24.688Z,10.20
2019-02-16T18:40:47.381Z,10.00
2019-02-16T18:46:10.220Z,9.90
2019-02-16T18:51:50.260Z,9.80
2019-02-16T18:57:13.473Z,9.70
2019-02-16T19:02:42.319Z,9.60
2019-02-16T19:08:05.014Z,9.50
2019-02-16T19:13:29.656Z,9.30
2019-02-16T19:18:59.463Z,9.20
2019-02-16T19:24:13.403Z,9.10
2019-02-16T19:29:35.071Z,9.00
2019-02-16T19:34:54.225Z,8.90
2019-02-16T19:40:21.086Z,8.90
2019-02-16T19:45:45.812Z,8.80
2019-02-16T19:50:59.349Z,8.70
2019-02-16T19:56:26.115Z,8.60
2019-02-16T20:01:48.622Z,8.50
2019-02-16T20:07:28.957Z,8.30
2019-02-16T20:12:52.755Z,8.20
2019-02-16T20:18:14.667Z,8.10
2019-02-16T20:23:40.113Z,8.10
2019-02-16T20:28:53.300Z,8.00
2019-02-16T20:34:17.402Z,7.90
2019-02-16T20:39:32.017Z,7.80
2019-02-16T20:44:51.867Z,7.60
2019-02-16T20:50:14.745Z,7.50
2019-02-16T20:55:47.034Z,7.30
2019-02-16T21:01:10.262Z,7.20
2019-02-16T21:06:33.279Z,7.10
2019-02-16T21:12:06.683Z,7.00
2019-02-16T21:17:29.370Z,6.90
2019-02-16T21:22:58.491Z,6.90
2019-02-16T21:28:24.310Z,6.80
2019-02-16T21:33:56.369Z,6.70
2019-02-16T21:39:21.844Z,6.60
2019-02-16T21:44:35.754Z,6.60
2019-02-16T21:49:58.451Z,6.50
2019-02-16T21:55:19.736Z,6.30
2019-02-16T22:00:49.465Z,6.20
2019-02-16T22:06:13.493Z,6.20
2019-02-16T22:11:36.521Z,6.10
2019-02-16T22:16:41.506Z,6.10
2019-02-16T22:21:46.191Z,6.10
2019-02-16T22:26:51.117Z,6.00
2019-02-16T22:31:57.598Z,6.00
2019-02-16T22:37:04.073Z,5.90
2019-02-16T22:42:08.772Z,5.90
2019-02-16T22:47:13.541Z,5.80
2019-02-16T22:52:19.864Z,5.70
2019-02-16T22:57:24.624Z,5.70
2019-02-16T23:02:29.449Z,5.70
2019-02-16T23:07:34.377Z,5.70
2019-02-16T23:12:39.202Z,5.60
2019-02-16T23:17:45.039Z,5.60
2019-02-16T23:22:49.875Z,5.60
2019-02-16T23:27:54.639Z,5.50
2019-02-16T23:33:00.245Z,5.50
2019-02-16T23:38:05.109Z,5.40
2019-02-16T23:43:09.965Z,5.30
2019-02-16T23:48:14.678Z,5.30
2019-02-16T23:53:19.872Z,5.20
2019-02-16T23:58:29.229Z,5.20
